Time;durP1;ratioP1;P1;durP2;ratioP2;P2;SDS_P1;SDS_P2;PMS_P1;PMS_P2;Temp;Humidity;BMP_temperature;BMP_pressure;BME280_temperature;BME280_humidity;BME280_pressure;Samples;Min_cycle;Max_cycle;Signal;HPM_P1;HPM_P2
2022/09/13 00:00:35;;;;;;;6.00;0.88;;;17.30;76.90;;;;;;6150430;23;20048;-71
2022/09/13 00:03:02;;;;;;;4.70;1.13;;;17.30;76.90;;;;;;6151520;23;19998;-71
2022/09/13 00:05:28;;;;;;;11.10;2.05;;;17.20;77.00;;;;;;6150768;23;20002;-72
2022/09/13 00:07:56;;;;;;;12.40;1.67;;;17.30;77.10;;;;;;6152275;23;20877;-72
2022/09/13 00:10:23;;;;;;;9.40;3.17;;;17.30;77.60;;;;;;6150659;23;20002;-73
2022/09/13 00:12:51;;;;;;;3.50;1.00;;;17.30;78.20;;;;;;6152486;23;20005;-71
2022/09/13 00:15:17;;;;;;;6.03;1.80;;;17.20;78.10;;;;;;6150236;23;20326;-71
2022/09/13 00:17:44;;;;;;;5.05;1.20;;;17.20;77.70;;;;;;6151743;23;20001;-71
2022/09/13 00:20:10;;;;;;;6.78;1.52;;;17.20;78.30;;;;;;6151469;23;20064;-71
2022/09/13 00:22:37;;;;;;;8.48;1.65;;;17.20;78.80;;;;;;6150668;23;20085;-71
2022/09/13 00:25:05;;;;;;;5.60;1.38;;;17.20;79.20;;;;;;6151799;23;20101;-70
2022/09/13 00:27:35;;;;;;;8.68;1.92;;;17.20;79.50;;;;;;6150303;23;20014;-71
2022/09/13 00:30:04;;;;;;;6.07;1.83;;;17.20;79.40;;;;;;6151945;23;20013;-71
2022/09/13 00:32:31;;;;;;;11.48;2.17;;;17.20;79.00;;;;;;6150931;23;20377;-72
2022/09/13 00:34:57;;;;;;;2.28;0.77;;;17.20;79.10;;;;;;6151337;23;20461;-71
2022/09/13 00:37:24;;;;;;;4.20;1.60;;;17.10;79.20;;;;;;6151195;23;20024;-72
2022/09/13 00:39:50;;;;;;;6.28;3.22;;;17.10;79.30;;;;;;6150966;23;19997;-71
2022/09/13 00:42:17;;;;;;;5.75;1.52;;;17.10;79.40;;;;;;6151380;23;20002;-72
2022/09/13 00:45:13;;;;;;;6.75;1.20;;;17.10;79.40;;;;;;6150945;23;20002;-71
2022/09/13 00:47:52;;;;;;;4.65;1.88;;;17.10;79.70;;;;;;6151977;23;20083;-71
2022/09/13 00:50:41;;;;;;;6.68;1.38;;;17.10;79.80;;;;;;6151268;23;20322;-72
2022/09/13 00:53:15;;;;;;;2.60;1.20;;;17.10;79.90;;;;;;6150238;23;19997;-71
2022/09/13 00:55:48;;;;;;;6.07;1.40;;;17.00;79.90;;;;;;6151676;23;20006;-72
2022/09/13 00:58:22;;;;;;;5.80;1.45;;;17.00;80.00;;;;;;6150695;23;20119;-71
2022/09/13 01:00:50;;;;;;;6.72;3.53;;;17.00;80.20;;;;;;6151705;23;20080;-70
2022/09/13 01:03:22;;;;;;;6.03;1.20;;;17.00;80.10;;;;;;6150646;23;20025;-71
2022/09/13 01:05:55;;;;;;;6.40;1.35;;;17.00;80.30;;;;;;6150460;23;20369;-70
2022/09/13 01:08:22;;;;;;;5.07;2.25;;;17.00;80.40;;;;;;6151508;23;20016;-70
2022/09/13 01:10:53;;;;;;;8.63;2.55;;;17.00;80.40;;;;;;6150032;23;20009;-70
2022/09/13 01:13:22;;;;;;;4.55;1.08;;;17.00;80.50;;;;;;6151701;23;20001;-71
2022/09/13 01:15:49;;;;;;;8.93;2.20;;;17.00;80.40;;;;;;6150458;23;19998;-70
2022/09/13 01:18:16;;;;;;;2.55;1.08;;;17.00;80.60;;;;;;6151492;23;20627;-68
2022/09/13 01:20:54;;;;;;;12.40;2.83;;;17.00;80.60;;;;;;6150457;23;20009;-70
2022/09/13 01:23:23;;;;;;;4.20;1.40;;;16.90;80.70;;;;;;6150403;23;20001;-71
2022/09/13 01:26:18;;;;;;;6.20;1.77;;;16.90;80.90;;;;;;6150924;23;20133;-71
2022/09/13 01:29:03;;;;;;;8.45;1.80;;;16.90;81.20;;;;;;6149496;23;20016;-70
2022/09/13 01:31:48;;;;;;;6.05;1.55;;;16.90;81.20;;;;;;6150730;23;20036;-70
2022/09/13 01:34:23;;;;;;;3.13;0.90;;;16.90;81.40;;;;;;6150982;23;20012;-70
2022/09/13 01:37:18;;;;;;;3.83;0.88;;;16.90;81.40;;;;;;6150204;23;20002;-70
2022/09/13 01:40:00;;;;;;;10.77;2.65;;;16.90;81.60;;;;;;6151298;23;20029;-72
2022/09/13 01:43:03;;;;;;;4.93;1.67;;;17.00;82.00;;;;;;6150751;23;20020;-70
2022/09/13 01:45:44;;;;;;;3.88;1.30;;;16.90;82.30;;;;;;6150187;23;20117;-72
2022/09/13 01:48:32;;;;;;;5.68;1.30;;;16.90;82.00;;;;;;6151621;23;20013;-72
2022/09/13 01:51:05;;;;;;;11.35;1.60;;;16.90;81.90;;;;;;6150738;23;20055;-71
2022/09/13 01:53:47;;;;;;;5.93;1.58;;;16.90;82.00;;;;;;6150555;23;20009;-71
2022/09/13 01:56:26;;;;;;;3.60;1.70;;;16.90;82.20;;;;;;6150747;23;20005;-73
2022/09/13 01:59:12;;;;;;;2.05;0.90;;;16.90;82.20;;;;;;6149711;23;20700;-70
2022/09/13 03:15:10;;;;;;;4.95;0.90;;;16.10;84.20;;;;;;5047420;28;20469;-71
2022/09/13 03:18:16;;;;;;;2.03;0.70;;;16.30;84.40;;;;;;5027932;28;20566;-72
2022/09/13 03:21:06;;;;;;;5.88;1.45;;;16.30;84.00;;;;;;5032508;28;20028;-72
2022/09/13 03:23:38;;;;;;;2.60;0.90;;;16.40;83.80;;;;;;5027406;28;20033;-73
2022/09/13 03:26:20;;;;;;;0.95;0.60;;;16.40;83.50;;;;;;5033303;28;20103;-73
2022/09/13 03:29:05;;;;;;;4.57;0.80;;;16.40;83.30;;;;;;5030327;28;20025;-73
2022/09/13 03:31:37;;;;;;;3.35;0.70;;;16.40;83.20;;;;;;5041382;28;20057;-75
2022/09/13 03:34:21;;;;;;;8.07;0.90;;;16.40;83.00;;;;;;5035111;28;20132;-74
2022/09/13 03:36:56;;;;;;;6.05;0.95;;;16.40;83.50;;;;;;5030506;28;20030;-73
2022/09/13 03:39:49;;;;;;;9.82;1.52;;;16.40;83.40;;;;;;5034924;28;20619;-74
2022/09/13 03:42:23;;;;;;;4.30;1.30;;;16.40;83.40;;;;;;5031556;28;20680;-72
2022/09/13 03:44:54;;;;;;;4.00;2.13;;;16.40;83.40;;;;;;5030552;28;20503;-75
2022/09/13 03:47:23;;;;;;;3.97;2.30;;;16.40;83.40;;;;;;5032038;28;20029;-74
2022/09/13 03:49:51;;;;;;;4.05;0.65;;;16.40;83.30;;;;;;5035123;28;20164;-74
2022/09/13 03:52:18;;;;;;;4.32;0.88;;;16.40;83.20;;;;;;5028900;28;20025;-72
2022/09/13 03:54:45;;;;;;;5.35;2.08;;;16.40;83.00;;;;;;5027357;28;20341;-75
2022/09/13 03:57:13;;;;;;;3.92;1.27;;;16.40;83.00;;;;;;5037556;28;20053;-75
2022/09/13 03:59:47;;;;;;;5.80;0.90;;;16.40;82.90;;;;;;5031880;28;20056;-76
2022/09/13 04:02:15;;;;;;;2.90;1.35;;;16.40;82.90;;;;;;5037030;28;20065;-73
2022/09/13 04:04:43;;;;;;;3.30;1.27;;;16.40;82.80;;;;;;5035323;28;20021;-76
2022/09/13 04:07:12;;;;;;;2.95;0.60;;;16.40;82.90;;;;;;5042236;28;20105;-70
2022/09/13 04:09:38;;;;;;;1.58;0.73;;;16.30;83.00;;;;;;5034864;28;20036;-70
2022/09/13 04:12:05;;;;;;;7.15;1.08;;;16.30;83.00;;;;;;5031835;28;20104;-67
2022/09/13 04:14:32;;;;;;;4.07;0.60;;;16.30;83.00;;;;;;5017792;28;20037;-71
2022/09/13 04:16:59;;;;;;;2.10;0.65;;;16.40;82.50;;;;;;5016392;28;20025;-71
2022/09/13 04:19:26;;;;;;;2.90;0.60;;;16.30;83.20;;;;;;5018344;28;20033;-73
2022/09/13 04:21:54;;;;;;;7.68;5.20;;;16.30;84.00;;;;;;5018137;28;20116;-73
2022/09/13 04:24:25;;;;;;;12.93;7.05;;;16.30;84.10;;;;;;5016563;28;20018;-71
2022/09/13 04:26:53;;;;;;;9.82;4.53;;;16.30;84.10;;;;;;5020667;28;20026;-74
2022/09/13 04:29:21;;;;;;;11.18;2.75;;;16.30;84.30;;;;;;5016592;28;20044;-76
2022/09/13 04:31:49;;;;;;;17.20;2.47;;;16.30;84.50;;;;;;5014684;28;20025;-77
2022/09/13 04:34:21;;;;;;;2.83;1.38;;;16.30;84.40;;;;;;5019443;28;20121;-72
2022/09/13 04:36:48;;;;;;;4.03;1.25;;;16.30;84.20;;;;;;5022122;28;20044;-74
2022/09/13 04:39:15;;;;;;;3.22;0.88;;;16.30;83.90;;;;;;5020308;28;20057;-73
2022/09/13 04:41:44;;;;;;;6.28;1.38;;;16.30;83.90;;;;;;5013906;28;20084;-75
2022/09/13 04:44:12;;;;;;;7.28;1.45;;;16.30;83.70;;;;;;5015856;28;20484;-72
2022/09/13 04:46:38;;;;;;;3.55;1.13;;;16.30;83.60;;;;;;5017024;28;20033;-74
2022/09/13 04:49:05;;;;;;;3.38;1.13;;;16.30;83.50;;;;;;5015728;28;20022;-71
2022/09/13 04:51:36;;;;;;;1.67;0.73;;;16.20;83.40;;;;;;5011280;28;20024;-75
2022/09/13 04:54:07;;;;;;;3.70;1.60;;;16.20;83.20;;;;;;5015288;28;20026;-76
2022/09/13 04:56:34;;;;;;;1.10;0.63;;;16.20;83.20;;;;;;5012287;28;20469;-76
2022/09/13 04:59:01;;;;;;;3.78;1.05;;;16.20;83.10;;;;;;5013336;28;20376;-76
2022/09/13 05:01:28;;;;;;;2.45;0.60;;;16.20;83.10;;;;;;5014396;28;20029;-77
2022/09/13 05:03:55;;;;;;;1.55;1.05;;;16.20;83.10;;;;;;5012560;28;20025;-76
2022/09/13 05:06:21;;;;;;;3.22;1.55;;;16.20;83.10;;;;;;5015752;28;20465;-77
2022/09/13 05:08:55;;;;;;;1.58;0.85;;;16.20;83.10;;;;;;5012462;28;20511;-76
2022/09/13 05:11:26;;;;;;;4.20;1.23;;;16.20;83.20;;;;;;5012801;28;20025;-77
2022/09/13 05:13:56;;;;;;;1.13;0.73;;;16.20;83.30;;;;;;5015059;28;20117;-76
2022/09/13 05:16:28;;;;;;;4.60;1.65;;;16.20;83.40;;;;;;5013946;28;20033;-75
2022/09/13 05:18:56;;;;;;;2.67;0.77;;;16.20;83.50;;;;;;5014141;28;20032;-77
2022/09/13 05:21:23;;;;;;;7.07;2.22;;;16.20;83.50;;;;;;5015730;28;20024;-76
2022/09/13 05:23:51;;;;;;;5.22;1.20;;;16.20;83.60;;;;;;5014611;28;20036;-76
2022/09/13 05:26:17;;;;;;;0.65;0.60;;;16.20;83.60;;;;;;5011362;28;20112;-77
2022/09/13 05:28:44;;;;;;;2.47;1.42;;;16.20;83.80;;;;;;5015340;28;20034;-76
2022/09/13 05:31:19;;;;;;;4.47;1.00;;;16.20;83.70;;;;;;5016655;28;20543;-77
2022/09/13 05:33:51;;;;;;;2.70;1.67;;;16.20;83.90;;;;;;5012596;28;20030;-77
2022/09/13 05:36:18;;;;;;;3.90;1.33;;;16.20;84.30;;;;;;5015794;28;20033;-77
2022/09/13 05:38:45;;;;;;;4.15;1.30;;;16.20;84.90;;;;;;5013483;28;20056;-75
2022/09/13 05:41:11;;;;;;;2.05;1.33;;;16.30;85.10;;;;;;5016472;28;20963;-75
2022/09/13 05:43:38;;;;;;;4.57;1.02;;;16.30;85.30;;;;;;5014646;28;20523;-76
2022/09/13 05:46:05;;;;;;;3.15;0.80;;;16.30;85.20;;;;;;5016292;28;20414;-77
2022/09/13 05:48:33;;;;;;;9.05;1.17;;;16.30;85.10;;;;;;5011942;28;20049;-75
2022/09/13 05:51:10;;;;;;;6.38;1.20;;;16.30;85.00;;;;;;5019170;28;20050;-76
2022/09/13 05:53:38;;;;;;;1.30;0.88;;;16.30;85.00;;;;;;5014745;28;20105;-77
2022/09/13 05:56:06;;;;;;;5.85;1.25;;;16.30;85.20;;;;;;5011992;28;20109;-77
2022/09/13 05:58:34;;;;;;;2.40;0.90;;;16.30;85.90;;;;;;5014433;28;20411;-75
2022/09/13 06:01:00;;;;;;;3.55;1.05;;;16.40;86.40;;;;;;5017542;28;20021;-76
2022/09/13 06:03:27;;;;;;;7.47;1.23;;;16.40;86.50;;;;;;5013447;28;20044;-76
2022/09/13 06:05:57;;;;;;;3.67;1.08;;;16.40;86.30;;;;;;5018014;28;20028;-76
2022/09/13 06:08:29;;;;;;;1.58;1.00;;;16.40;86.00;;;;;;5011953;28;20036;-76
2022/09/13 06:11:00;;;;;;;4.05;0.80;;;16.40;85.70;;;;;;5021868;28;20445;-76
2022/09/13 06:13:27;;;;;;;3.65;0.70;;;16.40;85.60;;;;;;5011606;28;20049;-77
2022/09/13 06:15:55;;;;;;;3.00;0.80;;;16.40;85.80;;;;;;5010581;28;20502;-75
2022/09/13 06:18:23;;;;;;;0.82;0.60;;;16.40;86.00;;;;;;5012360;28;20036;-76
2022/09/13 06:20:50;;;;;;;4.50;1.10;;;16.50;85.80;;;;;;5013929;28;20034;-77
2022/09/13 06:23:17;;;;;;;3.05;1.17;;;16.50;85.90;;;;;;5011446;28;20033;-74
2022/09/13 06:25:43;;;;;;;1.83;1.73;;;16.50;86.20;;;;;;5011659;28;20635;-76
2022/09/13 06:28:10;;;;;;;2.08;0.63;;;16.60;86.40;;;;;;5014011;28;20024;-74
2022/09/13 06:30:36;;;;;;;1.15;0.60;;;16.60;86.40;;;;;;5011523;28;20121;-76
2022/09/13 06:33:03;;;;;;;3.05;0.73;;;16.60;86.30;;;;;;5016568;28;20087;-76
2022/09/13 06:35:29;;;;;;;2.10;0.93;;;16.60;86.30;;;;;;5017179;28;20033;-76
2022/09/13 06:37:57;;;;;;;2.60;1.50;;;16.70;86.30;;;;;;5018369;28;20030;-75
2022/09/13 06:40:24;;;;;;;2.92;0.70;;;16.70;86.30;;;;;;5011858;28;20455;-74
2022/09/13 06:42:51;;;;;;;2.05;0.70;;;16.80;86.40;;;;;;5013541;28;20115;-76
2022/09/13 06:45:18;;;;;;;3.25;1.05;;;16.80;86.30;;;;;;5014930;28;20022;-76
2022/09/13 06:47:44;;;;;;;2.08;0.55;;;16.90;86.30;;;;;;5011477;28;20029;-75
2022/09/13 06:50:11;;;;;;;1.70;1.02;;;16.90;86.00;;;;;;5011399;28;20103;-75
2022/09/13 06:52:37;;;;;;;1.02;0.80;;;16.90;85.90;;;;;;5014781;28;20775;-74
2022/09/13 06:55:04;;;;;;;0.95;0.82;;;16.90;85.80;;;;;;5016363;28;20023;-73
2022/09/13 06:57:31;;;;;;;1.77;0.70;;;17.00;85.70;;;;;;5009310;28;20022;-72
2022/09/13 06:59:57;;;;;;;2.25;1.15;;;17.00;85.60;;;;;;5014289;28;20083;-75
2022/09/13 07:02:24;;;;;;;4.32;0.95;;;17.00;85.40;;;;;;5016732;28;20033;-76
2022/09/13 07:04:51;;;;;;;2.83;0.52;;;17.00;85.30;;;;;;5012477;28;20029;-73
2022/09/13 07:07:18;;;;;;;9.50;1.95;;;17.10;85.10;;;;;;5011838;28;20033;-73
2022/09/13 07:09:44;;;;;;;3.47;0.80;;;17.10;85.00;;;;;;5011622;28;20058;-75
2022/09/13 07:12:11;;;;;;;2.17;0.57;;;17.10;85.10;;;;;;5013999;28;20036;-74
2022/09/13 07:14:37;;;;;;;1.17;0.38;;;17.10;84.90;;;;;;5011298;28;20087;-75
2022/09/13 07:17:04;;;;;;;1.25;0.93;;;17.20;84.80;;;;;;5013152;28;20021;-75
2022/09/13 07:19:30;;;;;;;0.85;0.32;;;17.20;84.60;;;;;;5011850;28;20026;-74
2022/09/13 07:21:57;;;;;;;1.63;1.17;;;17.20;84.50;;;;;;5017997;28;20036;-73
2022/09/13 07:24:24;;;;;;;4.45;0.80;;;17.20;84.20;;;;;;5012283;28;20026;-75
2022/09/13 07:26:51;;;;;;;2.75;1.58;;;17.30;84.30;;;;;;5011745;28;20079;-74
2022/09/13 07:29:21;;;;;;;0.40;0.32;;;17.30;84.00;;;;;;5011400;28;20103;-73
2022/09/13 07:31:50;;;;;;;2.05;0.47;;;17.40;83.90;;;;;;5011648;28;20167;-75
2022/09/13 07:34:19;;;;;;;4.00;1.15;;;17.40;83.80;;;;;;5012677;28;20025;-74
2022/09/13 07:36:46;;;;;;;2.78;0.60;;;17.40;83.60;;;;;;5013471;28;20026;-75
2022/09/13 07:39:13;;;;;;;1.02;0.40;;;17.50;83.40;;;;;;5012699;28;20026;-74
2022/09/13 07:41:40;;;;;;;0.95;0.77;;;17.50;83.10;;;;;;5015399;28;20060;-76
2022/09/13 07:44:08;;;;;;;1.83;0.70;;;17.50;82.50;;;;;;5010291;28;20385;-74
2022/09/13 07:46:38;;;;;;;1.25;0.40;;;17.50;82.10;;;;;;5014032;28;20017;-73
2022/09/13 07:49:05;;;;;;;2.05;0.82;;;17.60;81.80;;;;;;5014112;28;20021;-76
2022/09/13 07:51:34;;;;;;;1.20;0.30;;;17.60;81.70;;;;;;5019796;28;20056;-75
2022/09/13 07:54:04;;;;;;;1.48;0.68;;;17.60;81.40;;;;;;5013008;28;20068;-76
2022/09/13 07:56:36;;;;;;;1.10;0.35;;;17.60;81.00;;;;;;5014429;28;20030;-73
2022/09/13 07:59:05;;;;;;;0.73;0.40;;;17.70;81.10;;;;;;5017421;28;20029;-76
2022/09/13 08:01:38;;;;;;;2.60;0.40;;;17.70;81.20;;;;;;5017436;28;20422;-75
2022/09/13 08:04:07;;;;;;;3.05;0.30;;;17.80;81.10;;;;;;5014374;28;20028;-75
2022/09/13 08:06:35;;;;;;;0.68;0.60;;;17.80;80.90;;;;;;5009026;28;20022;-75
2022/09/13 08:09:03;;;;;;;1.75;0.50;;;17.90;80.80;;;;;;5014116;28;20484;-75
2022/09/13 08:11:36;;;;;;;1.63;1.00;;;17.90;80.80;;;;;;5015530;28;20049;-74
2022/09/13 08:14:04;;;;;;;2.10;1.13;;;18.00;80.90;;;;;;5014315;28;20046;-74
2022/09/13 08:16:31;;;;;;;2.33;0.60;;;18.00;80.80;;;;;;5015769;28;20434;-74
2022/09/13 08:19:03;;;;;;;1.20;0.32;;;18.00;80.80;;;;;;5013846;28;20026;-74
2022/09/13 08:21:37;;;;;;;2.00;0.60;;;18.10;80.80;;;;;;5027987;28;20024;-74
2022/09/13 08:24:05;;;;;;;0.75;0.50;;;18.10;80.50;;;;;;5018494;28;20096;-75
2022/09/13 08:26:34;;;;;;;0.73;0.43;;;18.10;80.20;;;;;;5018685;28;20033;-74
2022/09/13 08:29:03;;;;;;;4.05;0.65;;;18.10;79.70;;;;;;5016012;28;20101;-75
2022/09/13 08:31:31;;;;;;;6.00;0.90;;;18.20;79.60;;;;;;5022716;28;20009;-75
2022/09/13 08:33:58;;;;;;;3.42;0.70;;;18.20;79.50;;;;;;5018493;28;20033;-74
2022/09/13 08:36:26;;;;;;;4.65;0.85;;;18.20;79.30;;;;;;5017841;28;20044;-75
2022/09/13 08:38:58;;;;;;;3.78;1.20;;;18.30;79.50;;;;;;5017631;28;20691;-74
2022/09/13 08:41:51;;;;;;;2.25;1.25;;;18.30;79.40;;;;;;5019592;28;20021;-74
2022/09/13 08:44:34;;;;;;;2.05;0.60;;;18.40;79.30;;;;;;5019899;28;20068;-75
2022/09/13 08:47:23;;;;;;;5.95;1.15;;;18.50;79.20;;;;;;5018302;28;20065;-74
2022/09/13 08:49:58;;;;;;;2.42;0.63;;;18.50;79.10;;;;;;5014454;28;20029;-74
2022/09/13 08:52:39;;;;;;;3.90;0.60;;;18.60;78.70;;;;;;5016762;28;20441;-74
2022/09/13 08:55:35;;;;;;;2.40;0.82;;;18.60;78.70;;;;;;5019805;28;20036;-75
2022/09/13 08:58:30;;;;;;;2.67;0.95;;;18.60;77.70;;;;;;5011133;28;20077;-74
2022/09/13 09:01:29;;;;;;;0.98;0.50;;;18.70;77.60;;;;;;5020717;28;20126;-75
2022/09/13 09:04:06;;;;;;;2.00;0.47;;;18.70;77.10;;;;;;5012056;28;20532;-74
2022/09/13 09:06:35;;;;;;;3.65;1.48;;;18.80;76.90;;;;;;5018014;28;20014;-74
2022/09/13 09:09:09;;;;;;;4.78;0.77;;;18.80;77.70;;;;;;5015804;28;20029;-75
2022/09/13 09:11:44;;;;;;;5.32;1.00;;;18.90;76.90;;;;;;5017210;28;20026;-75
2022/09/13 09:14:40;;;;;;;4.18;1.58;;;18.90;76.30;;;;;;5015926;28;20496;-75
2022/09/13 09:17:12;;;;;;;10.68;1.02;;;19.00;76.30;;;;;;5021665;28;20109;-74
2022/09/13 09:20:05;;;;;;;6.60;1.27;;;19.00;76.10;;;;;;5013097;28;20045;-75
2022/09/13 09:22:34;;;;;;;2.65;0.80;;;19.10;76.40;;;;;;5016972;28;20523;-74
2022/09/13 09:25:02;;;;;;;2.33;0.90;;;19.20;76.30;;;;;;5015156;28;20112;-75
2022/09/13 09:27:30;;;;;;;5.25;1.08;;;19.30;76.30;;;;;;5016317;28;20603;-75
2022/09/13 09:29:57;;;;;;;0.88;0.50;;;19.30;75.90;;;;;;5019731;28;20504;-75
2022/09/13 09:32:42;;;;;;;1.73;0.70;;;19.30;75.70;;;;;;5017903;28;20503;-75
2022/09/13 09:35:27;;;;;;;2.67;0.80;;;19.40;75.60;;;;;;5017023;28;20365;-75
2022/09/13 09:38:23;;;;;;;6.20;0.98;;;19.50;75.90;;;;;;5016271;28;20145;-75
2022/09/13 09:40:50;;;;;;;2.95;0.90;;;19.50;75.90;;;;;;5015392;28;20042;-75
2022/09/13 09:43:32;;;;;;;3.45;1.30;;;19.60;75.90;;;;;;5017695;28;20045;-75
2022/09/13 09:46:02;;;;;;;8.77;1.42;;;19.70;75.60;;;;;;5016406;28;20030;-74
2022/09/13 09:48:36;;;;;;;2.20;0.90;;;19.70;75.20;;;;;;5020737;28;20079;-74
2022/09/13 09:51:07;;;;;;;2.92;0.80;;;19.80;74.70;;;;;;5015828;28;20390;-75
2022/09/13 09:53:40;;;;;;;1.75;0.80;;;19.80;74.20;;;;;;5018119;28;20022;-72
2022/09/13 09:56:20;;;;;;;1.92;0.85;;;19.90;73.40;;;;;;5017103;28;20037;-74
2022/09/13 09:58:46;;;;;;;5.72;1.27;;;19.90;73.20;;;;;;5012132;28;20061;-75
2022/09/13 10:01:26;;;;;;;1.85;1.00;;;20.00;73.10;;;;;;5020192;28;20363;-73
2022/09/13 10:04:11;;;;;;;11.70;1.35;;;20.00;72.10;;;;;;5014518;28;20042;-74
2022/09/13 10:06:42;;;;;;;5.20;0.57;;;20.10;72.40;;;;;;5018910;28;20362;-75
2022/09/13 10:09:09;;;;;;;4.53;1.02;;;20.10;72.40;;;;;;5018373;28;20834;-75
2022/09/13 12:17:58;;;;;;;4.97;1.75;;;21.70;66.70;;;;;;6194264;22;3110110;-72
2022/09/13 12:20:38;;;;;;;3.58;1.35;;;22.20;68.30;;;;;;6279065;22;20421;-69
2022/09/13 12:23:14;;;;;;;5.53;1.98;;;22.20;68.10;;;;;;6279762;22;19996;-74
2022/09/13 12:25:50;;;;;;;7.43;1.63;;;22.30;67.90;;;;;;6281073;22;20338;-74
2022/09/13 12:28:21;;;;;;;4.32;1.35;;;22.30;67.90;;;;;;6279662;22;20454;-73
2022/09/13 12:30:58;;;;;;;5.80;1.55;;;22.30;67.80;;;;;;6280411;22;20015;-71
2022/09/13 12:33:25;;;;;;;7.78;1.42;;;22.30;67.80;;;;;;6280602;22;20000;-73
2022/09/13 12:36:05;;;;;;;5.60;1.58;;;22.40;67.60;;;;;;6280339;22;20000;-72
2022/09/13 12:38:57;;;;;;;5.60;1.65;;;22.40;67.70;;;;;;6281138;22;20423;-73
2022/09/13 12:41:42;;;;;;;7.28;1.17;;;22.40;67.70;;;;;;6279243;22;20000;-72
2022/09/13 12:44:11;;;;;;;3.10;1.15;;;22.40;67.80;;;;;;6280288;22;20003;-73
2022/09/13 12:47:02;;;;;;;3.20;0.98;;;22.40;67.70;;;;;;6281118;22;20022;-70
2022/09/13 12:49:53;;;;;;;5.07;1.23;;;22.40;67.80;;;;;;6279637;22;20010;-70
2022/09/13 12:52:29;;;;;;;4.43;1.63;;;22.40;67.70;;;;;;6281024;22;20070;-70
2022/09/13 12:55:17;;;;;;;5.75;2.33;;;22.40;67.40;;;;;;6280890;22;20000;-70
2022/09/13 12:58:09;;;;;;;2.25;1.20;;;22.40;67.50;;;;;;6279430;22;20406;-70
2022/09/13 13:01:10;;;;;;;5.28;1.40;;;22.40;67.40;;;;;;6280956;22;20004;-72
2022/09/13 13:03:53;;;;;;;2.03;1.20;;;22.40;67.30;;;;;;6241202;22;20003;-72
2022/09/13 13:06:26;;;;;;;4.43;1.42;;;22.30;67.00;;;;;;6279712;22;20015;-70
2022/09/13 13:08:55;;;;;;;4.40;1.23;;;22.30;67.10;;;;;;6280395;22;20009;-73
2022/09/13 13:11:28;;;;;;;2.70;1.13;;;22.30;67.10;;;;;;6279498;22;20006;-72
2022/09/13 13:14:08;;;;;;;2.03;1.30;;;22.30;67.30;;;;;;6280124;22;20042;-70
2022/09/13 13:16:47;;;;;;;4.60;1.42;;;22.30;67.40;;;;;;6278925;22;20615;-70
2022/09/13 13:19:33;;;;;;;9.70;1.20;;;22.30;67.60;;;;;;6272500;22;20008;-73
2022/09/13 13:22:36;;;;;;;7.65;1.63;;;22.30;67.50;;;;;;6274160;22;20002;-73
2022/09/13 13:25:30;;;;;;;7.85;2.40;;;22.30;67.60;;;;;;6273409;22;20003;-73
2022/09/13 13:27:57;;;;;;;6.00;1.30;;;22.20;67.80;;;;;;6272818;22;20464;-71
2022/09/13 13:30:57;;;;;;;3.08;0.73;;;22.20;68.30;;;;;;6273785;22;20122;-70
2022/09/13 13:33:27;;;;;;;4.88;1.23;;;22.20;68.50;;;;;;6273030;22;20011;-73
2022/09/13 13:35:54;;;;;;;4.53;1.23;;;22.20;68.70;;;;;;6273649;22;20031;-73
2022/09/13 13:38:40;;;;;;;4.80;1.52;;;22.20;69.00;;;;;;6273637;22;20423;-71
2022/09/13 13:41:37;;;;;;;3.67;1.30;;;22.20;69.30;;;;;;6272521;22;20038;-73
2022/09/13 13:44:19;;;;;;;2.28;1.08;;;22.20;69.60;;;;;;6261124;22;20049;-70
2022/09/13 13:46:50;;;;;;;6.90;1.58;;;22.20;69.70;;;;;;6273220;22;20012;-70
2022/09/13 13:49:35;;;;;;;5.07;1.35;;;22.20;69.90;;;;;;6273085;22;20092;-72
2022/09/13 13:52:12;;;;;;;4.28;1.30;;;22.20;70.00;;;;;;6273888;22;20323;-72
2022/09/13 13:54:41;;;;;;;3.58;1.50;;;22.20;70.00;;;;;;6272209;22;20006;-70
2022/09/13 13:57:31;;;;;;;7.97;1.17;;;22.20;70.00;;;;;;6273623;22;20334;-72
2022/09/13 14:00:20;;;;;;;4.20;1.38;;;22.30;70.10;;;;;;6273346;22;20042;-74
2022/09/13 14:02:49;;;;;;;2.35;1.17;;;22.30;70.00;;;;;;6272319;22;20008;-72
2022/09/13 14:05:39;;;;;;;2.55;1.13;;;22.30;70.00;;;;;;6273593;22;20083;-73
2022/09/13 14:08:37;;;;;;;5.95;1.30;;;22.30;70.00;;;;;;6272522;22;20049;-73
2022/09/13 14:11:19;;;;;;;6.20;1.35;;;22.30;70.10;;;;;;6272330;22;19999;-73
2022/09/13 14:13:51;;;;;;;3.05;1.02;;;22.30;70.50;;;;;;6273238;22;20000;-73
2022/09/13 14:16:23;;;;;;;4.18;1.75;;;22.30;70.40;;;;;;6270497;22;20003;-72
2022/09/13 14:19:06;;;;;;;7.32;2.83;;;22.20;70.40;;;;;;6271659;22;20016;-71
2022/09/13 14:21:33;;;;;;;5.10;0.73;;;22.20;70.80;;;;;;6262740;22;20042;-71
2022/09/13 14:24:24;;;;;;;7.43;1.00;;;22.20;71.10;;;;;;6271689;22;20042;-70
2022/09/13 14:26:57;;;;;;;2.15;1.10;;;22.20;71.30;;;;;;6272815;22;20082;-70
2022/09/13 14:29:27;;;;;;;4.28;1.10;;;22.10;71.40;;;;;;6244118;22;20386;-70
2022/09/13 14:32:02;;;;;;;9.50;1.10;;;22.10;71.40;;;;;;6272756;22;20031;-69
2022/09/13 14:34:31;;;;;;;1.65;0.85;;;22.10;71.20;;;;;;6272840;22;20081;-72
2022/09/13 14:37:00;;;;;;;2.15;0.80;;;22.10;71.80;;;;;;6272514;22;20023;-71
2022/09/13 14:39:28;;;;;;;2.58;0.85;;;22.10;71.80;;;;;;6273100;22;20003;-71
2022/09/13 14:42:00;;;;;;;9.15;1.85;;;22.10;71.80;;;;;;6271714;22;20000;-71
2022/09/13 14:44:28;;;;;;;8.18;2.70;;;22.00;71.60;;;;;;6272713;22;20019;-71
2022/09/13 14:47:08;;;;;;;5.25;0.93;;;22.00;71.60;;;;;;6271673;22;20394;-72
2022/09/13 14:49:39;;;;;;;3.10;0.77;;;22.00;71.90;;;;;;6272871;22;20027;-73
2022/09/13 14:52:17;;;;;;;5.30;1.48;;;21.90;72.00;;;;;;6273148;22;20062;-69
2022/09/13 14:54:50;;;;;;;4.32;1.65;;;21.90;72.10;;;;;;6271566;22;20003;-69
2022/09/13 14:57:27;;;;;;;2.17;0.80;;;21.90;72.10;;;;;;6272743;22;19996;-71
2022/09/13 14:59:57;;;;;;;5.18;1.50;;;21.80;72.10;;;;;;6272372;22;20004;-69
2022/09/13 15:02:28;;;;;;;4.57;0.95;;;21.80;72.10;;;;;;6272502;22;20007;-68
2022/09/13 15:04:58;;;;;;;2.25;1.08;;;21.70;72.20;;;;;;6272118;22;19992;-68
2022/09/13 15:07:31;;;;;;;20.83;1.90;;;21.70;72.30;;;;;;6271890;22;20000;-69
2022/09/13 15:10:11;;;;;;;5.57;1.30;;;21.60;72.30;;;;;;6273199;22;20075;-70
2022/09/13 15:12:56;;;;;;;8.73;1.77;;;21.60;72.70;;;;;;6271220;22;20426;-68
2022/09/13 15:15:40;;;;;;;6.07;1.35;;;21.60;72.70;;;;;;6272513;22;20450;-68
2022/09/13 15:18:16;;;;;;;6.40;1.58;;;21.60;72.90;;;;;;6272645;22;20042;-68
2022/09/13 15:21:08;;;;;;;6.75;1.70;;;21.50;73.00;;;;;;6271389;22;19999;-69
2022/09/13 15:23:41;;;;;;;2.70;1.70;;;21.50;73.10;;;;;;6272684;22;20053;-76
2022/09/13 15:26:11;;;;;;;5.13;1.40;;;21.50;73.20;;;;;;6271880;22;20536;-74
2022/09/13 15:28:44;;;;;;;5.32;1.27;;;21.40;73.10;;;;;;6271879;22;20501;-74
2022/09/13 15:31:25;;;;;;;4.72;1.65;;;21.40;73.10;;;;;;6273012;22;20007;-71
2022/09/13 15:34:10;;;;;;;5.90;1.48;;;21.40;73.10;;;;;;6271252;22;20010;-73
2022/09/13 15:36:37;;;;;;;8.60;2.05;;;21.30;73.10;;;;;;6272600;22;20458;-72
2022/09/13 15:39:18;;;;;;;6.95;1.40;;;21.30;73.20;;;;;;6271494;22;20004;-68
2022/09/13 15:41:59;;;;;;;7.57;1.67;;;21.30;73.30;;;;;;6271771;22;20014;-75
2022/09/13 15:44:29;;;;;;;8.68;1.50;;;21.20;73.30;;;;;;6272556;22;20423;-68
2022/09/13 15:47:01;;;;;;;6.68;1.25;;;21.20;73.50;;;;;;6271599;22;20014;-69
2022/09/13 15:49:28;;;;;;;6.47;2.35;;;21.10;73.70;;;;;;6272635;22;20004;-69
2022/09/13 15:52:00;;;;;;;18.55;8.90;;;21.10;73.70;;;;;;6271515;22;20008;-68
2022/09/13 15:54:42;;;;;;;12.10;7.47;;;21.10;74.00;;;;;;6271958;22;20003;-69
2022/09/13 15:57:16;;;;;;;12.30;3.75;;;21.00;74.20;;;;;;6272213;22;20083;-69
2022/09/13 15:59:43;;;;;;;7.18;2.60;;;21.00;74.50;;;;;;6263290;22;20054;-69
2022/09/13 16:02:31;;;;;;;5.07;2.50;;;21.00;74.60;;;;;;6270906;22;20034;-70
2022/09/13 16:04:58;;;;;;;7.13;2.50;;;21.00;74.70;;;;;;6270883;22;20011;-69
2022/09/13 16:07:26;;;;;;;11.07;2.25;;;20.90;74.70;;;;;;6271083;22;20004;-72
2022/09/13 16:09:53;;;;;;;7.13;1.55;;;20.90;75.20;;;;;;6272436;22;20422;-70
2022/09/13 16:12:23;;;;;;;8.15;1.65;;;20.80;75.50;;;;;;6265886;22;19992;-69
2022/09/13 16:14:49;;;;;;;5.45;1.30;;;20.80;75.70;;;;;;6270422;22;20034;-69
2022/09/13 16:17:19;;;;;;;7.93;1.65;;;20.80;75.60;;;;;;6265615;22;20042;-70
2022/09/13 16:19:46;;;;;;;5.65;1.42;;;20.70;75.90;;;;;;6241105;23;20040;-70
2022/09/13 16:22:14;;;;;;;4.70;1.80;;;20.70;76.00;;;;;;6210755;23;20087;-70
2022/09/13 16:24:41;;;;;;;7.68;3.35;;;20.60;76.20;;;;;;6214602;23;20031;-72
2022/09/13 16:27:11;;;;;;;3.50;2.08;;;20.60;76.30;;;;;;6241296;23;20378;-71
2022/09/13 16:29:38;;;;;;;7.07;2.17;;;20.50;76.50;;;;;;6240669;23;20001;-71
2022/09/13 16:32:04;;;;;;;7.47;1.67;;;20.50;76.60;;;;;;6212887;23;20035;-70
2022/09/13 16:34:31;;;;;;;8.32;1.92;;;20.50;76.70;;;;;;6239934;23;19996;-73
2022/09/13 16:36:57;;;;;;;6.88;1.90;;;20.50;76.90;;;;;;6214453;23;20012;-71